Hlavní strana
METAR-TAF:

METAR-TAF

Letiště :

Delaware, Ohio, Spojené státy americké

zeměpisná šířka: 40-16-47N, zeměpisná délka: 83-06-53W, výška: 288 m

Aktuální stav počasí

Zpráva byla vytvořena před 21 minutami, v 09:35 UTC
Severní vítr 5 kt
Teplota -6°C
Vlhkost vzduchu 93%
Tlak 1016 hPa
Viditelnost: 16.1 km
Polojasno ve výšce 1300 ft

METAR: KDLZ 160935Z AUTO 35005KT 10SM SCT013 M06/M07 A3000 RMK AO2

Čas: 04:56 (09:56 UTC)


TAF: chybějící

Stav a předpovědi počasí z více než 4 000 letišť (zprávy METAR a TAF).

Červené a žluté tečky na mapě představují dostupné meteorologické stanice.

Když kurzor umístíte na tečku, zobrazí se název stanice.

Pak kliknutím zobrazíte stav a předpověď počasí.

Chcete-li změnit mapu, kliknutím na zelené tlačítko se znaménkem +mapu přiblížíte, kliknutím na zelené tlačítko se znaménkem – mapu oddálíte a kliknutím na zelené šipky přejdete na sousední mapy.


METAR-TAF: